KFIT

Details ICAO KFIT (FIT)
Name Fitchburg Muni
Region United States
Timezone America/New_York (UTC-5.0)
Plans Departing 7
Arriving 2
Stats Elevation 348 ft / 106 m (AMSL)
Location 42.554155° -71.758969°
Runways 2
Magnetic Variation 14.408° W
Sunrise 2017-12-11 12:08:24 UTC / 2017-12-11 07:08:24 Local
Sunset 2017-12-11 21:15:17 UTC / 2017-12-11 16:15:17 Local
Advertisement - Login to hide

Runways

ID Width Length Bearing (true) Bearing (mag) Surface Threshold Offset Overrun Length
02 75 ft / 23 m 3,509 ft / 1,070 m 8.00° 22.41° Asphalt 568 ft / 173 m 0 ft / 0 m
14 98 ft / 30 m 4,506 ft / 1,373 m 128.59° 143.00° Asphalt 0 ft / 0 m 0 ft / 0 m
20 75 ft / 23 m 3,509 ft / 1,070 m 188.00° 202.41° Asphalt 459 ft / 140 m 0 ft / 0 m
32 98 ft / 30 m 4,506 ft / 1,373 m 308.60° 323.01° Asphalt 243 ft / 74 m 0 ft / 0 m

Map

Weather


0- 5 10 15 20 25 30 35+ Temperature / ° C

Clouds and Precipitation
Forecast for 2017-12-12 00:00 UTC. Updated an hour ago

Ground ~20,000 ft ~40,000 ft Winds

METAR

KFIT 112352Z AUTO 00000KT 10SM CLR M02/M06 A3000 RMK AO2 SLP164 T10171056 10039 21033 50008

TAF

Not found

Frequencies

Recorded 135.17 MHz ASOS
Approach 124.40 MHz BOSTON APP/DEP
Unicom 122.70 MHz CTAF/Unicom
Warning: Do not use this data for real-world aviation or navigation. No guarantee of current accuracy is given.